createdAt,value
2023-05-08T00:00:41.540Z,625.61
2023-05-08T00:01:41.539Z,624.68
2023-05-08T00:02:41.638Z,634.43
2023-05-08T00:03:41.686Z,620.44
2023-05-08T00:04:41.640Z,622.48
2023-05-08T00:05:41.594Z,655.75
2023-05-08T00:06:41.609Z,667.78
2023-05-08T00:07:41.635Z,629.97
2023-05-08T00:08:41.628Z,652.87
2023-05-08T00:09:41.648Z,645.73
2023-05-08T00:10:41.665Z,657.95
2023-05-08T00:11:41.676Z,661.14
2023-05-08T00:12:41.710Z,597.30
2023-05-08T00:13:41.665Z,518.97
2023-05-08T00:14:41.701Z,490.70
2023-05-08T00:15:41.703Z,480.04
2023-05-08T00:16:41.767Z,423.12
2023-05-08T00:17:41.765Z,439.27
2023-05-08T00:18:41.723Z,471.49
2023-05-08T00:19:41.718Z,485.18
2023-05-08T00:20:41.749Z,453.61
2023-05-08T00:21:41.735Z,443.77
2023-05-08T00:22:41.829Z,435.11
2023-05-08T00:23:41.751Z,468.06
2023-05-08T00:24:41.754Z,475.99
2023-05-08T00:25:41.740Z,499.28
2023-05-08T00:26:41.757Z,504.65
2023-05-08T00:27:41.732Z,463.96
2023-05-08T00:28:41.753Z,455.11
2023-05-08T00:29:41.731Z,447.69
2023-05-08T00:30:41.734Z,408.27
2023-05-08T00:31:41.777Z,407.16
2023-05-08T00:32:41.753Z,451.94
2023-05-08T00:33:41.838Z,397.22
2023-05-08T00:34:41.782Z,401.91
2023-05-08T00:35:41.768Z,459.32
2023-05-08T00:36:41.777Z,486.75
2023-05-08T00:37:41.789Z,497.86
2023-05-08T00:38:41.814Z,492.73
2023-05-08T00:39:41.802Z,464.87
2023-05-08T00:40:41.797Z,458.06
2023-05-08T00:41:41.802Z,448.09
2023-05-08T00:42:41.793Z,439.65
2023-05-08T00:43:41.833Z,448.51
2023-05-08T00:44:41.829Z,493.43
2023-05-08T00:45:41.845Z,481.35
2023-05-08T00:46:41.996Z,454.09
2023-05-08T00:47:41.865Z,444.70
2023-05-08T00:48:41.851Z,446.69
2023-05-08T00:49:41.844Z,469.58
2023-05-08T00:50:41.868Z,465.90
2023-05-08T00:51:41.864Z,522.21
2023-05-08T00:52:41.854Z,514.87
2023-05-08T00:53:41.890Z,524.83
2023-05-08T00:54:41.892Z,548.87
2023-05-08T00:55:41.888Z,603.37
2023-05-08T00:56:41.879Z,608.88
2023-05-08T00:57:41.890Z,575.99
2023-05-08T00:58:41.878Z,576.63
2023-05-08T00:59:41.900Z,566.28
2023-05-08T01:00:41.896Z,569.27
2023-05-08T01:01:41.939Z,593.90
2023-05-08T01:02:41.978Z,626.04
2023-05-08T01:03:42.002Z,651.16
2023-05-08T01:04:41.954Z,640.00
2023-05-08T01:05:41.975Z,642.65
2023-05-08T01:06:41.972Z,623.43
2023-05-08T01:07:42.004Z,652.41
2023-05-08T01:08:42.002Z,678.20
2023-05-08T01:09:42.015Z,690.61
2023-05-08T01:10:42.028Z,664.49
2023-05-08T01:11:42.078Z,679.56
2023-05-08T01:12:42.110Z,652.52
2023-05-08T01:13:42.127Z,659.32
2023-05-08T01:14:42.174Z,626.45
2023-05-08T01:15:42.209Z,696.85
2023-05-08T01:16:42.220Z,753.57
2023-05-08T01:17:42.251Z,765.61
2023-05-08T01:18:42.261Z,793.34
2023-05-08T01:19:42.283Z,857.48
2023-05-08T01:20:42.315Z,897.36
2023-05-08T01:21:42.346Z,885.64
2023-05-08T01:22:42.352Z,859.58
2023-05-08T01:23:42.395Z,811.00
2023-05-08T01:24:42.426Z,832.73
2023-05-08T01:25:42.429Z,861.72
2023-05-08T01:26:42.429Z,872.80
2023-05-08T01:27:42.453Z,882.14
2023-05-08T01:28:42.475Z,855.22
2023-05-08T01:29:42.511Z,833.92
2023-05-08T01:30:42.545Z,846.11
2023-05-08T01:31:42.543Z,813.47
2023-05-08T01:32:42.574Z,793.87
2023-05-08T01:33:42.637Z,890.44
2023-05-08T01:34:42.581Z,849.23
2023-05-08T01:35:42.582Z,894.78
2023-05-08T01:36:42.596Z,805.13
2023-05-08T01:37:42.603Z,787.28
2023-05-08T01:38:42.617Z,826.70
2023-05-08T01:39:42.628Z,791.73
2023-05-08T01:40:42.688Z,861.36
2023-05-08T01:41:42.681Z,962.71
2023-05-08T01:42:42.689Z,945.80
2023-05-08T01:43:42.707Z,854.01
2023-05-08T01:44:42.729Z,904.02
2023-05-08T01:45:42.715Z,920.07
2023-05-08T01:46:42.779Z,940.97
2023-05-08T01:47:42.742Z,917.38
2023-05-08T01:48:42.719Z,880.91
2023-05-08T01:49:42.721Z,899.30
2023-05-08T01:50:42.731Z,824.07
2023-05-08T01:51:42.753Z,926.80
2023-05-08T01:52:42.761Z,916.91
2023-05-08T01:53:42.751Z,927.61
2023-05-08T01:54:42.760Z,911.77
2023-05-08T01:55:42.809Z,910.21
2023-05-08T01:56:42.798Z,981.49
2023-05-08T01:57:42.821Z,986.26
2023-05-08T01:58:42.818Z,926.26
2023-05-08T01:59:42.864Z,841.65
2023-05-08T02:00:42.916Z,781.40
2023-05-08T02:01:42.879Z,901.40
2023-05-08T02:02:42.980Z,902.72
2023-05-08T02:03:42.947Z,870.72
2023-05-08T02:04:42.919Z,878.84
2023-05-08T02:05:42.928Z,924.33
2023-05-08T02:06:42.930Z,1000.00
2023-05-08T02:07:42.940Z,1000.00
2023-05-08T02:08:42.950Z,1000.00
2023-05-08T02:09:42.963Z,1000.00
2023-05-08T02:10:42.983Z,1000.00
2023-05-08T02:11:42.981Z,1000.00
2023-05-08T02:12:43.015Z,1000.00
2023-05-08T02:13:43.001Z,1000.00
2023-05-08T02:14:43.007Z,1000.00
2023-05-08T02:15:43.020Z,1000.00
2023-05-08T02:16:43.073Z,1000.00
2023-05-08T02:17:43.159Z,1000.00
2023-05-08T02:18:43.081Z,1000.00
2023-05-08T02:19:43.086Z,1000.00
2023-05-08T02:20:43.106Z,1000.00
2023-05-08T02:21:43.130Z,1000.00
2023-05-08T02:22:43.189Z,1000.00
2023-05-08T02:23:43.168Z,1000.00
2023-05-08T02:24:43.196Z,1000.00
2023-05-08T02:25:43.223Z,1000.00
2023-05-08T02:26:43.356Z,1000.00
2023-05-08T02:27:43.263Z,1000.00
2023-05-08T02:28:43.283Z,1000.00
2023-05-08T02:29:43.314Z,1000.00
2023-05-08T02:30:43.354Z,1000.00
2023-05-08T02:31:43.423Z,1000.00
2023-05-08T02:32:43.448Z,1000.00
2023-05-08T02:33:43.418Z,1000.00
2023-05-08T02:34:54.985Z,1000.00
2023-05-08T02:35:44.464Z,1000.00
2023-05-08T02:36:43.437Z,1000.00
2023-05-08T02:37:43.433Z,1000.00
2023-05-08T02:38:43.413Z,1000.00
2023-05-08T02:39:43.431Z,1000.00
2023-05-08T02:40:43.426Z,1000.00
2023-05-08T02:41:43.392Z,1000.00
2023-05-08T02:42:43.384Z,1000.00
2023-05-08T02:43:43.396Z,1000.00
2023-05-08T02:44:43.378Z,1000.00
2023-05-08T02:45:43.402Z,1000.00
2023-05-08T02:46:43.380Z,1000.00
2023-05-08T02:47:43.432Z,1000.00
2023-05-08T02:48:43.335Z,1000.00
2023-05-08T02:49:43.346Z,1000.00
2023-05-08T02:50:43.338Z,1000.00
2023-05-08T02:51:43.317Z,1000.00
2023-05-08T02:52:43.319Z,1000.00
2023-05-08T02:53:43.317Z,1000.00
2023-05-08T02:54:43.321Z,986.03
2023-05-08T02:55:43.293Z,943.46
2023-05-08T02:56:43.339Z,912.64
2023-05-08T02:57:43.333Z,1000.00
2023-05-08T02:58:43.326Z,948.35
2023-05-08T02:59:43.332Z,899.44
2023-05-08T03:00:43.354Z,681.90
2023-05-08T03:01:43.366Z,565.89
2023-05-08T03:02:43.436Z,496.99
2023-05-08T03:03:43.601Z,522.39
2023-05-08T03:04:43.414Z,509.26
2023-05-08T03:05:43.403Z,480.46
2023-05-08T03:06:43.413Z,416.09
2023-05-08T03:07:43.428Z,410.92
2023-05-08T03:08:43.454Z,394.26
2023-05-08T03:09:43.470Z,393.56
2023-05-08T03:10:43.472Z,384.94
2023-05-08T03:11:43.504Z,375.88
2023-05-08T03:12:43.544Z,353.09
2023-05-08T03:13:43.548Z,370.12
2023-05-08T03:14:43.560Z,388.38
2023-05-08T03:15:43.642Z,404.49
2023-05-08T03:16:43.605Z,444.23
2023-05-08T03:17:43.696Z,458.28
2023-05-08T03:18:43.635Z,422.18
2023-05-08T03:19:43.657Z,378.84
2023-05-08T03:20:43.688Z,352.40
2023-05-08T03:21:43.705Z,340.01
2023-05-08T03:22:43.738Z,307.99
2023-05-08T03:23:43.779Z,339.00
2023-05-08T03:24:43.808Z,323.55
2023-05-08T03:25:43.815Z,323.71
2023-05-08T03:26:43.822Z,378.34
2023-05-08T03:27:43.841Z,399.45
2023-05-08T03:28:43.820Z,402.73
2023-05-08T03:29:43.830Z,371.76
2023-05-08T03:30:43.840Z,328.89
2023-05-08T03:31:43.970Z,352.83
2023-05-08T03:32:43.839Z,350.32
2023-05-08T03:33:43.831Z,344.75
2023-05-08T03:34:43.853Z,330.12
2023-05-08T03:35:43.856Z,345.02
2023-05-08T03:36:43.918Z,360.08
2023-05-08T03:37:43.901Z,372.20
2023-05-08T03:38:43.883Z,353.73
2023-05-08T03:39:43.904Z,351.53
2023-05-08T03:40:43.922Z,358.77
2023-05-08T03:41:43.889Z,330.62
2023-05-08T03:42:43.895Z,322.83
2023-05-08T03:43:43.897Z,297.17
2023-05-08T03:44:43.918Z,286.24
2023-05-08T03:45:43.908Z,286.42
2023-05-08T03:46:43.975Z,259.28
2023-05-08T03:47:44.521Z,249.53
2023-05-08T03:48:43.987Z,241.39
2023-05-08T03:49:44.034Z,251.31
2023-05-08T03:50:44.039Z,246.14
2023-05-08T03:51:44.071Z,275.54
2023-05-08T03:52:44.120Z,285.20
2023-05-08T03:53:44.166Z,304.34
2023-05-08T03:54:44.216Z,321.56
2023-05-08T03:55:44.253Z,370.54
2023-05-08T03:56:44.303Z,368.43
2023-05-08T03:57:44.323Z,416.01
2023-05-08T03:58:44.405Z,376.84
2023-05-08T03:59:44.388Z,357.34
2023-05-08T04:00:44.433Z,364.59
2023-05-08T04:01:44.534Z,367.06
2023-05-08T04:02:44.518Z,399.64
2023-05-08T04:03:44.561Z,462.54
2023-05-08T04:04:44.538Z,451.78
2023-05-08T04:05:44.532Z,459.51
2023-05-08T04:06:49.858Z,406.45
2023-05-08T04:07:45.564Z,407.40
2023-05-08T04:08:44.552Z,406.18
2023-05-08T04:09:44.525Z,367.51
2023-05-08T04:10:44.548Z,338.89
2023-05-08T04:11:44.622Z,311.09
2023-05-08T04:12:44.566Z,294.70
2023-05-08T04:13:44.509Z,291.14
2023-05-08T04:14:44.495Z,264.97
2023-05-08T04:15:44.516Z,253.14
2023-05-08T04:16:44.597Z,261.82
2023-05-08T04:17:44.516Z,262.60
2023-05-08T04:18:44.520Z,270.68
2023-05-08T04:19:44.589Z,268.57
2023-05-08T04:20:46.247Z,282.15
2023-05-08T04:21:44.725Z,283.63
2023-05-08T04:22:44.778Z,274.79
2023-05-08T04:23:44.813Z,300.34
2023-05-08T04:24:44.858Z,298.75
2023-05-08T04:25:44.898Z,288.71
2023-05-08T04:26:44.936Z,266.57
2023-05-08T04:27:44.989Z,262.06
2023-05-08T04:28:45.053Z,280.88
2023-05-08T04:29:45.103Z,298.77
2023-05-08T04:30:45.140Z,288.95
2023-05-08T04:31:45.210Z,267.58
2023-05-08T04:32:46.760Z,268.92
2023-05-08T04:33:45.225Z,270.11
2023-05-08T04:34:45.276Z,251.20
2023-05-08T04:35:45.297Z,266.97
2023-05-08T04:36:45.361Z,247.34
2023-05-08T04:37:45.418Z,243.75
2023-05-08T04:38:45.456Z,227.65
2023-05-08T04:39:45.523Z,227.52
2023-05-08T04:40:45.609Z,231.00
2023-05-08T04:41:45.689Z,217.82
2023-05-08T04:42:45.683Z,240.80
2023-05-08T04:43:45.711Z,258.25
2023-05-08T04:44:45.743Z,253.44
2023-05-08T04:45:45.793Z,253.93
2023-05-08T04:46:45.819Z,275.31
2023-05-08T04:47:45.929Z,277.20
2023-05-08T04:48:45.931Z,266.26
2023-05-08T04:49:45.979Z,281.63
2023-05-08T04:50:46.015Z,279.86
2023-05-08T04:51:46.053Z,275.47
2023-05-08T04:52:46.085Z,256.21
2023-05-08T04:53:46.105Z,241.71
2023-05-08T04:54:46.193Z,248.18
2023-05-08T04:55:46.190Z,263.99
2023-05-08T04:56:46.230Z,249.64
2023-05-08T04:57:46.307Z,261.15
2023-05-08T04:58:46.293Z,279.83
2023-05-08T04:59:46.331Z,277.95
2023-05-08T05:00:46.342Z,250.95
2023-05-08T05:01:46.417Z,237.33
2023-05-08T05:02:46.453Z,234.35
2023-05-08T05:03:46.506Z,268.67
2023-05-08T05:04:46.532Z,329.07
2023-05-08T05:05:46.601Z,338.86
2023-05-08T05:06:46.630Z,360.45
2023-05-08T05:07:46.674Z,375.62
2023-05-08T05:08:46.723Z,363.75
2023-05-08T05:09:46.786Z,398.71
2023-05-08T05:10:46.832Z,401.82
2023-05-08T05:11:46.876Z,472.82
2023-05-08T05:12:47.062Z,558.05
2023-05-08T05:13:46.934Z,669.14
2023-05-08T05:14:46.951Z,696.19
2023-05-08T05:15:47.025Z,740.40
2023-05-08T05:16:46.996Z,760.15
2023-05-08T05:17:47.052Z,727.03
2023-05-08T05:18:47.070Z,781.01
2023-05-08T05:19:47.130Z,797.19
2023-05-08T05:20:47.157Z,735.21
2023-05-08T05:21:47.342Z,772.59
2023-05-08T05:22:47.230Z,873.17
2023-05-08T05:23:47.273Z,1000.00
2023-05-08T05:24:47.302Z,1000.00
2023-05-08T05:25:47.324Z,1000.00
2023-05-08T05:26:47.331Z,1000.00
2023-05-08T05:27:47.311Z,1000.00
2023-05-08T05:28:47.360Z,987.01
2023-05-08T05:29:47.391Z,942.13
2023-05-08T05:30:47.401Z,855.06
2023-05-08T05:31:47.527Z,945.00
2023-05-08T05:32:47.508Z,1000.00
2023-05-08T05:33:47.540Z,1000.00
2023-05-08T05:34:47.561Z,1000.00
2023-05-08T05:35:47.613Z,1000.00
2023-05-08T05:36:47.643Z,1000.00
2023-05-08T05:37:47.710Z,1000.00
2023-05-08T05:38:47.770Z,1000.00
2023-05-08T05:39:47.783Z,1000.00
2023-05-08T05:40:47.814Z,1000.00
2023-05-08T05:41:47.815Z,1000.00
2023-05-08T05:42:47.814Z,1000.00
2023-05-08T05:43:47.856Z,1000.00
2023-05-08T05:44:47.836Z,1000.00
2023-05-08T05:45:47.841Z,1000.00
2023-05-08T05:46:47.945Z,1000.00
2023-05-08T05:47:47.959Z,1000.00
2023-05-08T05:48:47.946Z,1000.00
2023-05-08T05:49:47.948Z,1000.00
2023-05-08T05:50:47.934Z,1000.00
2023-05-08T05:51:47.958Z,1000.00
2023-05-08T05:52:48.080Z,1000.00
2023-05-08T05:53:47.972Z,1000.00
2023-05-08T05:54:47.996Z,1000.00
2023-05-08T05:55:48.022Z,1000.00
2023-05-08T05:56:48.006Z,1000.00
2023-05-08T05:57:48.021Z,1000.00
2023-05-08T05:58:48.033Z,1000.00
2023-05-08T05:59:48.037Z,1000.00
2023-05-08T06:00:48.039Z,1000.00
2023-05-08T06:01:48.045Z,1000.00
2023-05-08T06:02:48.175Z,1000.00
2023-05-08T06:03:48.058Z,899.20
2023-05-08T06:04:48.043Z,866.26
2023-05-08T06:05:48.050Z,883.00
2023-05-08T06:06:48.125Z,884.72
2023-05-08T06:07:48.151Z,846.82
2023-05-08T06:08:48.213Z,787.19
2023-05-08T06:09:48.288Z,735.52
2023-05-08T06:10:48.354Z,686.84
2023-05-08T06:11:48.383Z,734.46
2023-05-08T06:12:48.484Z,747.01
2023-05-08T06:13:50.393Z,775.50
2023-05-08T06:14:48.554Z,798.69
2023-05-08T06:15:48.616Z,770.50
2023-05-08T06:16:48.699Z,745.82
2023-05-08T06:17:48.786Z,732.71
2023-05-08T06:18:48.763Z,756.20
2023-05-08T06:19:48.835Z,713.83
2023-05-08T06:20:48.865Z,714.39
2023-05-08T06:21:48.927Z,758.74
2023-05-08T06:22:48.962Z,783.77
2023-05-08T06:23:48.969Z,837.53
2023-05-08T06:24:49.042Z,891.25
2023-05-08T06:25:49.082Z,902.47
2023-05-08T06:26:49.139Z,871.94
2023-05-08T06:27:49.230Z,810.26
2023-05-08T06:28:49.260Z,808.83
2023-05-08T06:29:49.763Z,832.78
2023-05-08T06:30:49.625Z,907.33
2023-05-08T06:31:49.431Z,811.60
2023-05-08T06:32:49.582Z,790.41
2023-05-08T06:33:49.598Z,708.19
2023-05-08T06:34:49.572Z,652.40
2023-05-08T06:35:49.661Z,627.90
2023-05-08T06:36:49.762Z,624.11
2023-05-08T06:37:49.749Z,577.10
2023-05-08T06:38:49.828Z,588.76
2023-05-08T06:39:57.261Z,613.39
2023-05-08T06:40:50.904Z,614.13
2023-05-08T06:41:49.881Z,615.55
2023-05-08T06:42:49.842Z,580.85
2023-05-08T06:43:49.842Z,605.56
2023-05-08T06:44:49.850Z,582.81
2023-05-08T06:45:49.839Z,610.79
2023-05-08T06:46:50.026Z,601.56
2023-05-08T06:47:49.950Z,623.33
2023-05-08T06:48:49.814Z,649.23
2023-05-08T06:49:49.793Z,629.66
2023-05-08T06:50:49.794Z,611.53
2023-05-08T06:51:49.815Z,603.15
2023-05-08T06:52:49.867Z,591.59
2023-05-08T06:53:49.873Z,498.06
2023-05-08T06:54:50.355Z,453.97
2023-05-08T06:55:49.937Z,461.70
2023-05-08T06:56:49.952Z,442.52
2023-05-08T06:57:49.973Z,436.94
2023-05-08T06:58:57.002Z,427.42
2023-05-08T06:59:51.047Z,423.44
2023-05-08T07:00:49.984Z,429.55
2023-05-08T07:01:50.066Z,430.33
2023-05-08T07:02:50.149Z,442.20
2023-05-08T07:03:49.980Z,481.52
2023-05-08T07:04:50.034Z,467.89
2023-05-08T07:05:49.967Z,443.36
2023-05-08T07:06:49.950Z,430.62
2023-05-08T07:07:50.297Z,426.12
2023-05-08T07:08:49.958Z,440.38
2023-05-08T07:09:49.966Z,425.51
2023-05-08T07:10:49.946Z,428.79
2023-05-08T07:11:49.934Z,419.71
2023-05-08T07:12:50.026Z,410.45
2023-05-08T07:13:49.941Z,370.95
2023-05-08T07:14:49.910Z,377.71
2023-05-08T07:15:49.927Z,343.34
2023-05-08T07:16:49.902Z,364.30
2023-05-08T07:17:49.926Z,404.25
2023-05-08T07:18:49.922Z,408.79
2023-05-08T07:19:49.985Z,393.81
2023-05-08T07:20:49.981Z,382.88
2023-05-08T07:21:49.986Z,369.01
2023-05-08T07:22:49.978Z,358.46
2023-05-08T07:23:49.982Z,304.06
2023-05-08T07:24:50.039Z,299.65
2023-05-08T07:25:50.040Z,276.52
2023-05-08T07:26:50.061Z,254.98
2023-05-08T07:27:50.056Z,238.53
2023-05-08T07:28:50.042Z,253.80
2023-05-08T07:29:50.103Z,269.41
2023-05-08T07:30:50.095Z,310.15
2023-05-08T07:31:50.131Z,339.82
2023-05-08T07:32:50.189Z,378.96
2023-05-08T07:33:50.143Z,404.15
2023-05-08T07:34:50.246Z,450.08
2023-05-08T07:35:50.196Z,469.36
2023-05-08T07:36:50.216Z,503.84
2023-05-08T07:37:50.246Z,513.55
2023-05-08T07:38:50.240Z,599.81
2023-05-08T07:39:50.253Z,637.26
2023-05-08T07:40:50.781Z,767.66
2023-05-08T07:41:50.339Z,663.99
2023-05-08T07:42:50.767Z,662.82
2023-05-08T07:43:50.326Z,631.57
2023-05-08T07:44:54.473Z,613.59
2023-05-08T07:45:50.346Z,614.90
2023-05-08T07:46:50.401Z,620.71
2023-05-08T07:47:51.163Z,631.69
2023-05-08T07:48:50.379Z,618.35
2023-05-08T07:49:50.322Z,609.27
2023-05-08T07:50:50.368Z,615.38
2023-05-08T07:51:50.303Z,641.56
2023-05-08T07:52:50.764Z,715.13
2023-05-08T07:53:50.290Z,836.88
2023-05-08T07:54:50.301Z,913.76
2023-05-08T07:55:50.266Z,1000.00
2023-05-08T07:56:50.282Z,1000.00
2023-05-08T07:57:50.302Z,1000.00
2023-05-08T07:58:50.266Z,1000.00
2023-05-08T07:59:50.250Z,1000.00
2023-05-08T08:00:50.247Z,1000.00
2023-05-08T08:01:50.263Z,1000.00
2023-05-08T08:02:50.468Z,1000.00
2023-05-08T08:03:50.390Z,1000.00
2023-05-08T08:04:50.228Z,1000.00
2023-05-08T08:05:50.365Z,834.44
2023-05-08T08:06:50.233Z,570.16
2023-05-08T08:07:50.288Z,503.33
2023-05-08T08:08:50.236Z,457.49
2023-05-08T08:09:50.193Z,453.66
2023-05-08T08:10:50.259Z,403.68
2023-05-08T08:11:50.479Z,330.17
2023-05-08T08:12:50.812Z,302.16
2023-05-08T08:13:50.361Z,308.97
2023-05-08T08:14:50.510Z,287.01
2023-05-08T08:15:50.484Z,305.19
2023-05-08T08:16:50.574Z,284.17
2023-05-08T08:17:50.937Z,292.86
2023-05-08T08:18:50.590Z,242.84
2023-05-08T08:19:50.645Z,202.60
2023-05-08T08:20:50.741Z,199.88
2023-05-08T08:21:50.829Z,206.35
2023-05-08T08:22:50.878Z,211.75
2023-05-08T08:23:50.872Z,222.30
2023-05-08T08:24:52.466Z,219.23
2023-05-08T08:25:51.325Z,216.35
2023-05-08T08:26:50.935Z,223.95
2023-05-08T08:27:50.888Z,217.15
2023-05-08T08:28:51.016Z,222.50
2023-05-08T08:29:52.523Z,251.18
2023-05-08T08:30:51.888Z,251.64
2023-05-08T08:31:50.893Z,255.95
2023-05-08T08:32:50.956Z,269.97
2023-05-08T08:33:50.875Z,302.99
2023-05-08T08:34:50.870Z,330.57
2023-05-08T08:35:50.873Z,271.29
2023-05-08T08:36:50.827Z,226.03
2023-05-08T08:37:51.309Z,223.03
2023-05-08T08:38:50.908Z,209.25
2023-05-08T08:39:50.825Z,193.63
2023-05-08T08:40:50.859Z,187.40
2023-05-08T08:41:50.859Z,195.90
2023-05-08T08:42:51.299Z,175.52
2023-05-08T08:43:50.940Z,164.80
2023-05-08T08:44:50.946Z,128.80
2023-05-08T08:45:51.014Z,115.22
2023-05-08T08:46:51.083Z,121.43
2023-05-08T08:47:51.124Z,124.56
2023-05-08T08:48:51.051Z,120.09
2023-05-08T08:49:51.060Z,123.36
2023-05-08T08:50:51.127Z,118.87
2023-05-08T08:51:51.122Z,99.20
2023-05-08T08:52:51.129Z,72.50
2023-05-08T08:53:51.107Z,62.40
2023-05-08T08:54:51.224Z,55.46
2023-05-08T08:55:51.112Z,58.46
2023-05-08T08:56:51.115Z,52.03
2023-05-08T08:57:51.111Z,43.10
2023-05-08T08:58:51.233Z,40.47
2023-05-08T08:59:51.159Z,32.56
2023-05-08T09:00:51.164Z,33.83
2023-05-08T09:01:51.330Z,31.06
2023-05-08T09:02:51.271Z,34.71
2023-05-08T09:03:51.246Z,40.83
2023-05-08T09:04:51.198Z,52.78
2023-05-08T09:05:51.329Z,48.35
2023-05-08T09:06:51.207Z,45.58
2023-05-08T09:07:51.352Z,48.60
2023-05-08T09:08:51.211Z,41.87
2023-05-08T09:09:51.260Z,38.32
2023-05-08T09:10:51.309Z,34.21
2023-05-08T09:11:51.270Z,40.79
2023-05-08T09:12:51.365Z,45.07
2023-05-08T09:13:51.283Z,60.70
2023-05-08T09:14:51.296Z,66.42
2023-05-08T09:15:51.403Z,76.58
2023-05-08T09:16:51.357Z,86.47
2023-05-08T09:17:51.396Z,96.07
2023-05-08T09:18:51.336Z,105.79
2023-05-08T09:19:51.347Z,113.31
2023-05-08T09:20:51.432Z,124.30
2023-05-08T09:21:51.343Z,119.97
2023-05-08T09:22:51.387Z,110.29
2023-05-08T09:23:51.383Z,91.64
2023-05-08T09:24:51.416Z,84.32
2023-05-08T09:25:51.402Z,82.16
2023-05-08T09:26:51.497Z,81.68
2023-05-08T09:27:51.818Z,87.57
2023-05-08T09:28:51.843Z,86.94
2023-05-08T09:29:51.445Z,96.55
2023-05-08T09:30:51.441Z,121.73
2023-05-08T09:31:51.580Z,143.20
2023-05-08T09:32:51.561Z,178.06
2023-05-08T09:33:51.821Z,180.72
2023-05-08T09:34:51.613Z,138.68
2023-05-08T09:35:51.703Z,121.94
2023-05-08T09:36:51.755Z,101.83
2023-05-08T09:37:51.805Z,124.04
2023-05-08T09:38:52.321Z,132.52
2023-05-08T09:39:51.982Z,139.08
2023-05-08T09:40:52.366Z,154.34
2023-05-08T09:41:52.033Z,170.48
2023-05-08T09:42:52.168Z,165.19
2023-05-08T09:43:52.176Z,151.67
2023-05-08T09:44:52.230Z,157.20
2023-05-08T09:45:52.307Z,138.20
2023-05-08T09:46:52.323Z,132.16
2023-05-08T09:47:52.413Z,106.41
2023-05-08T09:48:52.431Z,82.34
2023-05-08T09:49:52.465Z,80.72
2023-05-08T09:50:52.537Z,75.61
2023-05-08T09:51:52.711Z,86.51
2023-05-08T09:52:52.719Z,101.41
2023-05-08T09:53:52.740Z,118.23
2023-05-08T09:54:52.781Z,147.10
2023-05-08T09:55:52.824Z,165.73
2023-05-08T09:56:52.881Z,191.97
2023-05-08T09:57:52.941Z,216.51
2023-05-08T09:58:53.085Z,240.65
2023-05-08T09:59:53.073Z,254.20
2023-05-08T10:00:53.127Z,239.02
2023-05-08T10:01:53.132Z,202.56
2023-05-08T10:02:53.365Z,175.77
2023-05-08T10:03:53.362Z,155.50
2023-05-08T10:04:53.238Z,176.50
2023-05-08T10:05:53.323Z,176.57
2023-05-08T10:06:56.378Z,168.93
2023-05-08T10:07:53.848Z,168.67
2023-05-08T10:08:53.360Z,182.16
2023-05-08T10:09:53.353Z,234.66
2023-05-08T10:10:53.404Z,270.90
2023-05-08T10:11:53.328Z,302.40
2023-05-08T10:12:53.376Z,354.79
2023-05-08T10:13:53.452Z,418.79
2023-05-08T10:14:53.383Z,416.65
2023-05-08T10:15:53.311Z,396.12
2023-05-08T10:16:53.336Z,353.33
2023-05-08T10:17:53.355Z,324.10
2023-05-08T10:18:53.321Z,298.01
2023-05-08T10:19:53.280Z,281.26
2023-05-08T10:20:53.363Z,259.96
2023-05-08T10:21:53.340Z,252.85
2023-05-08T10:22:53.290Z,194.06
2023-05-08T10:23:53.287Z,137.24
2023-05-08T10:24:53.256Z,123.77
2023-05-08T10:25:55.021Z,150.35
2023-05-08T10:27:05.735Z,181.85
2023-05-08T10:27:54.253Z,150.55
2023-05-08T10:28:53.323Z,121.63
2023-05-08T10:29:53.210Z,117.87
2023-05-08T10:30:53.348Z,121.21
2023-05-08T10:31:53.208Z,110.68
2023-05-08T10:32:53.233Z,93.37
2023-05-08T10:33:53.204Z,105.25
2023-05-08T10:34:53.237Z,109.58
2023-05-08T10:35:53.211Z,106.88
2023-05-08T10:36:54.185Z,110.03
2023-05-08T10:37:53.237Z,110.13
2023-05-08T10:38:53.278Z,90.40
2023-05-08T10:39:53.344Z,87.27
2023-05-08T10:40:53.445Z,96.83
2023-05-08T10:41:53.465Z,73.86
2023-05-08T10:42:53.502Z,52.41
2023-05-08T10:43:53.514Z,37.45
2023-05-08T10:44:53.542Z,27.44
2023-05-08T10:45:53.657Z,21.51
2023-05-08T10:46:53.734Z,23.72
2023-05-08T10:47:53.755Z,21.33
2023-05-08T10:48:53.733Z,18.41
2023-05-08T10:49:53.719Z,14.06
2023-05-08T10:50:53.731Z,13.57
2023-05-08T10:51:53.753Z,13.76
2023-05-08T10:52:53.763Z,11.97
2023-05-08T10:53:53.799Z,11.33
2023-05-08T10:54:53.772Z,11.50
2023-05-08T10:55:53.972Z,10.30
2023-05-08T10:56:53.800Z,8.72
2023-05-08T10:57:53.786Z,7.29
2023-05-08T10:58:53.828Z,6.02
2023-05-08T10:59:53.802Z,6.89
2023-05-08T11:00:53.845Z,7.19
2023-05-08T11:01:53.867Z,11.37
2023-05-08T11:02:53.938Z,13.66
2023-05-08T11:03:53.929Z,14.13
2023-05-08T11:04:53.854Z,12.41
2023-05-08T11:05:53.922Z,14.30
2023-05-08T11:06:53.859Z,15.65
2023-05-08T11:07:53.890Z,13.06
2023-05-08T11:08:54.248Z,10.64
2023-05-08T11:09:54.039Z,11.32
2023-05-08T11:10:54.047Z,10.40
2023-05-08T11:11:54.119Z,10.16
2023-05-08T11:12:54.254Z,7.96
2023-05-08T11:13:54.230Z,7.33
2023-05-08T11:14:54.225Z,8.00
2023-05-08T11:15:54.335Z,11.07
2023-05-08T11:16:54.379Z,12.97
2023-05-08T11:17:54.518Z,12.85
2023-05-08T11:18:54.841Z,10.01
2023-05-08T11:19:54.546Z,7.94
2023-05-08T11:20:54.579Z,5.82
2023-05-08T11:21:54.856Z,5.44
2023-05-08T11:22:54.698Z,5.23
2023-05-08T11:23:54.745Z,5.96
2023-05-08T11:24:54.789Z,5.76
2023-05-08T11:25:54.836Z,5.86
2023-05-08T11:26:54.878Z,6.68
2023-05-08T11:27:54.897Z,7.66
2023-05-08T11:28:54.986Z,7.85
2023-05-08T11:29:54.960Z,7.50
2023-05-08T11:30:54.991Z,6.02
2023-05-08T11:31:55.035Z,6.11
2023-05-08T11:32:55.083Z,5.85
2023-05-08T11:33:55.064Z,4.29
2023-05-08T11:34:55.063Z,4.17
2023-05-08T11:35:55.048Z,3.77
2023-05-08T11:36:55.063Z,4.37
2023-05-08T11:37:55.073Z,4.95
2023-05-08T11:38:56.348Z,4.23
2023-05-08T11:39:55.076Z,4.79
2023-05-08T11:40:55.105Z,4.42
2023-05-08T11:41:55.102Z,5.10
2023-05-08T11:42:55.127Z,6.22
2023-05-08T11:43:55.146Z,7.12
2023-05-08T11:44:55.170Z,7.04
2023-05-08T11:45:55.180Z,8.79
2023-05-08T11:46:55.233Z,11.51
2023-05-08T11:47:55.201Z,14.55
2023-05-08T11:48:55.204Z,15.32
2023-05-08T11:49:55.275Z,14.56
2023-05-08T11:50:55.267Z,10.35
2023-05-08T11:51:55.266Z,10.69
2023-05-08T11:52:55.244Z,9.81
2023-05-08T11:53:55.268Z,10.52
2023-05-08T11:54:55.251Z,11.82
2023-05-08T11:55:55.257Z,10.81
2023-05-08T11:56:55.264Z,9.68
2023-05-08T11:57:55.275Z,8.81
2023-05-08T11:58:55.278Z,9.85
2023-05-08T11:59:55.262Z,9.54
2023-05-08T12:00:55.424Z,9.04
2023-05-08T12:02:55.341Z,7.60
2023-05-08T12:03:55.401Z,6.56
2023-05-08T12:04:55.317Z,5.07
2023-05-08T12:05:55.257Z,3.75
2023-05-08T12:06:55.248Z,2.38
2023-05-08T12:07:55.219Z,2.05
2023-05-08T12:08:55.232Z,1.98
2023-05-08T12:09:55.209Z,2.13
2023-05-08T12:10:55.216Z,2.38
2023-05-08T12:11:55.202Z,2.32
2023-05-08T12:12:55.233Z,2.01
2023-05-08T12:13:55.217Z,2.10
2023-05-08T12:14:55.174Z,2.30
2023-05-08T12:15:55.167Z,2.75
2023-05-08T12:16:55.208Z,3.56
2023-05-08T12:17:55.172Z,4.59
2023-05-08T12:18:55.160Z,5.38
2023-05-08T12:19:55.156Z,3.77
2023-05-08T12:20:55.158Z,3.47
2023-05-08T12:21:55.147Z,3.01
2023-05-08T12:22:55.139Z,3.65
2023-05-08T12:23:55.134Z,4.35
2023-05-08T12:24:55.129Z,3.65
2023-05-08T12:25:55.545Z,3.03
2023-05-08T12:26:55.097Z,2.94
2023-05-08T12:27:55.110Z,2.99
2023-05-08T12:28:55.104Z,3.30
2023-05-08T12:29:55.090Z,3.82
2023-05-08T12:30:55.101Z,5.24
2023-05-08T12:31:55.090Z,5.71
2023-05-08T12:32:55.119Z,5.96
2023-05-08T12:33:55.072Z,6.00